Aeroporto :







RITROVATECI SU...

 
LOGIN :

Iscrizione | Disclaimer

   EN    FR    IT 

 









Sommario :    VFR   VFR Marginale   IFR   IFR Intensivo   IFR Molto Intensivo
Visibilità : 
Base nubi : 
>= 8 km
>= 3000ft
5 / 8 km
1000 / 3000 ft
1500m / 5 km
500 / 1000 ft
800 / 1500m
200 / 500 ft
< 800m
< 200 ft
Simboli :   Temporali  Nebbia  Neve Forte  Precipitazioni Forti  Vento > 20 kt






- Altitudine del aeroporto : 71 ft
- Codice IATA : YBC


CYBC - Baie Comeau

ULTIMO METAR :
  • 031900Z AUTO 23010KT 9SM CLR 20/13 A2981 RMK SLP097 DENSITY ALT 800FT

METARs OBSOLETI :
  • 031800Z AUTO 20008KT 180V260 9SM CLR 20/14 A2983 RMK SLP102 DENSITY ALT 700FT
  • 031700Z AUTO 19004KT 130V230 9SM CLR 20/14 A2986 RMK SLP112 DENSITY ALT 700FT

TAF TAF CYBC
Valido dal 03 a 14 ore il 04 a 02 ore UTC


031338Z 0314/0402 23006KT 5SM BR OVC005
TEMPO 0314/0317 6SM BR SCT005
BECMG 0314/0316 20012KT
FM031700 20012KT P6SM FEW060
BECMG 0323/0401 VRB03KT RMK FCST BASED ON AUTO OBS. NXT FCST BY 032000Z
FIR CZUL / America del Nord



MetMap, La meteo Aeronautica in un colpo d'occhio ! - Copyright ORBIFLY Dicembre 2007 - Disclaimer

ORBIFLY MET'MAP TEAM :

Programmazione e sviluppo : Alexandra Zaïnal
Concezione : Baudouin d'Aumeries
Aiuto per la programmazione : Marc-Olivier Méhu
Supporto tecnico e logistico : Manuel Goepfert
Aiuto per la traduzione : Arnaldo La Scala

Contatto : metmap@orbifly.com




FONTI E CREDITI :

   NOAA